Forside
METAR-TAF:

METAR-TAF

Lufthavne :

Flughafen Kiel

Kiel, Tyskland

Breddekreds: 54-23N, længdekreds: 010-10E, højde: 31 m

Aktuelle vejr

Denne rapport blev lavet for 1 time og 2 minutter siden, kl. 20:20 UTC
Vind 14 kt fra nordnordøst
Temperatur 6°C
Fugtighed 81%
Tryk 1007 hPa
Sigt 10 km eller mere

METAR: EDHK 192020Z AUTO 03014KT 9999 // FEW017/// BKN029/// OVC050/// 06/03 Q1007

Tid: 23:22 (21:22 UTC)

Vejrudsigter

Denne rapport blev lavet for 6 timer og 20 minutter siden, kl. 15:02 UTC
Foreløbig gælder fra 19 på 15 UTC til 19 på 19 UTC
Vind 12 kt fra nord
Sigt 10 km eller mere
Brudte skyer i en højde af 1500 ft
ændring
fra 19 på 15 UTC til 19 på 17 UTC
Vind 15 kt fra nordnordøst med vindstød på up til 25 kt
Midlertidig
fra 19 på 15 UTC til 19 på 17 UTC
Vind 20 kt fra nordnordøst med vindstød på up til 30 kt
Brudte skyer i en højde af 700 ft

TAF: EDHK 191502Z 1915/1919 36012KT 9999 BKN015 BECMG 1915/1917 03015G25KT TEMPO 1915/1917 03020G30KT BKN007

Vejrobservationer og prognoser fra mere end 4000 lufthavne (METAR og TAF).

De gule og røde prikker repræsenterer de meteorologiske stationer.

Flyt musen over at se navnet på stationen.

Så klik over at se vejr observationer og prognoser.

At skifte det kort: Klik på de grønne knapper med et sort kors for at zoome ind; på den grønne knap med en bindestreg for at zoome ud; eller på de grønne pile for tilstødende kort.


METAR-TAF: